MAPA DE AEROPUERTO

INFORMACIÓN METAR y TAF


Deprecated: The each() function is deprecated. This message will be suppressed on further calls in /home/customer/www/clickair-va.com/public_html/VAM/vam/helpers/get_metar.php on line 20
METAR FOR EFHK
ADDS - METARS form results

(0419 UTC 25 May 2022)
Data provider http://aviationweather.gov/metar/data/
 
METAR text: EFHK 250350Z 11005KT CAVOK 12/04 Q1013 NOSIG
Conditions at: EFHK (HELSINKI/VANTAA , FI) observed 0350 UTC 25 May 2022
Temperature: 12.0°C (54°F)
Dewpoint: 4.0°C (39°F) [RH = 58%]
Pressure (altimeter): 29.91 inches Hg (1013.0 mb)
Winds: from the ESE (110 degrees) at 6 MPH (5 knots; 2.6 m/s)
Visibility: 6 or more miles (10+ km)
Ceiling: ceiling and visibility are OK
Clouds: unknown
Weather: no significant weather observed at this time

METAR text: EFHK 250320Z 10006KT CAVOK 10/04 Q1013 NOSIG
Conditions at: EFHK (HELSINKI/VANTAA , FI) observed 0320 UTC 25 May 2022
Temperature: 10.0°C (50°F)
Dewpoint: 4.0°C (39°F) [RH = 66%]
Pressure (altimeter): 29.91 inches Hg (1013.0 mb)
Winds: from the E (100 degrees) at 7 MPH (6 knots; 3.1 m/s)
Visibility: 6 or more miles (10+ km)
Ceiling: ceiling and visibility are OK
Clouds: unknown
Weather: no significant weather observed at this time

Forecast for: EFHK (HELSINKI/VANTAA , FI)
Text: TAF EFHK 250225Z 2503/2603 09005KT CAVOK
Forecast period: 0300 UTC 25 May 2022 to 0300 UTC 26 May 2022
Forecast type: FROM: standard forecast or significant change
Winds: from the E (90 degrees) at 6 MPH (5 knots; 2.6 m/s)
Visibility: 6 or more miles (10+ km)
Ceiling: unknown
Clouds: missing
Weather: NSW  (no significant weather)
Text: TEMPO 2522/2603 BKN010
Forecast period: 2200 UTC 25 May 2022 to 0300 UTC 26 May 2022
Forecast type: TEMPORARY: The following changes expected for less than half the time period
Visibility: missing
Ceiling: 1000 feet AGL
Clouds: broken clouds at 1000 feet AGL
Weather: no significant weather forecast for this period
Text: PROB30 2600/2603 4000 -RA BKN006
Forecast period: 0000 to 0300 UTC 26 May 2022
Forecast type: PROBABLE: 30 percent likelihood of the following during this time
Visibility: 2.49 miles (4.01 km)
Ceiling: 600 feet AGL
Clouds: broken clouds at 600 feet AGL
Weather: -RA  (light rain)